createdAt,value
2023-03-06T00:05:22.946Z,20.4
2023-03-06T00:15:23.680Z,21.8
2023-03-06T00:25:25.217Z,23.9
2023-03-06T00:35:25.152Z,22.3
2023-03-06T00:45:25.960Z,21.8
2023-03-06T00:55:27.014Z,21.7
2023-03-06T01:05:27.517Z,21.8
2023-03-06T01:15:28.077Z,21.8
2023-03-06T01:25:28.498Z,21.9
2023-03-06T01:35:28.944Z,21.1
2023-03-06T01:45:29.430Z,21.9
2023-03-06T01:55:30.235Z,20.3
2023-03-06T02:05:31.168Z,20.3
2023-03-06T02:15:32.311Z,21.7
2023-03-06T02:25:33.000Z,20.9
2023-03-06T02:35:33.120Z,22
2023-03-06T02:45:34.075Z,24.1
2023-03-06T02:55:34.990Z,21.5
2023-03-06T03:05:10.118Z,25.1
2023-03-06T03:15:10.923Z,21.5
2023-03-06T03:25:11.734Z,22.1
2023-03-06T03:35:14.048Z,21.3
2023-03-06T03:45:14.037Z,21.9
2023-03-06T03:55:15.097Z,21.9
2023-03-06T04:05:17.132Z,24.8
2023-03-06T04:15:19.143Z,21.7
2023-03-06T04:25:22.152Z,23.8
2023-03-06T04:35:23.909Z,21.6
2023-03-06T04:45:26.023Z,21.4
2023-03-06T04:55:27.806Z,21.3
2023-03-06T05:05:28.562Z,21.6
2023-03-06T05:15:29.800Z,20.7
2023-03-06T05:25:31.145Z,21.4
2023-03-06T05:35:31.240Z,21.1
2023-03-06T05:45:32.202Z,21.3
2023-03-06T05:55:37.085Z,31.1
2023-03-06T06:05:45.407Z,26.3
2023-03-06T06:15:55.870Z,35.3
2023-03-06T06:27:14.212Z,34.9
2023-03-06T06:37:29.891Z,35.6
2023-03-06T07:03:08.329Z,35.5
2023-03-06T07:13:26.688Z,36.7
2023-03-06T07:23:43.950Z,35.8
2023-03-06T07:34:04.766Z,35.1
2023-03-06T07:44:23.708Z,35.1
2023-03-06T07:54:42.654Z,36.5
2023-03-06T08:04:59.679Z,35
2023-03-06T08:15:16.907Z,35.9
2023-03-06T08:25:33.707Z,35.4
2023-03-06T08:35:52.621Z,34.1
2023-03-06T08:46:08.879Z,36.4
2023-03-06T08:56:26.570Z,35.3
2023-03-06T09:05:16.072Z,37.4
2023-03-06T09:15:37.055Z,38.1
2023-03-06T09:25:56.700Z,34
2023-03-06T09:36:12.519Z,36
2023-03-06T09:46:32.568Z,37.3
2023-03-06T09:56:53.286Z,37.6
2023-03-06T10:07:12.872Z,37.5
2023-03-06T10:17:35.219Z,37.4
2023-03-06T10:27:55.847Z,37.9
2023-03-06T10:38:17.170Z,37.6
2023-03-06T10:48:38.794Z,37.9
2023-03-06T10:58:58.286Z,37.2
2023-03-06T11:09:16.843Z,36.8
2023-03-06T11:19:36.249Z,37.8
2023-03-06T11:29:55.493Z,37.4
2023-03-06T11:40:14.736Z,37.4
2023-03-06T11:50:34.136Z,36.7
2023-03-06T12:00:53.801Z,36.3
2023-03-06T12:11:09.793Z,31.4
2023-03-06T12:21:20.118Z,31.6
2023-03-06T12:31:31.639Z,33.6
2023-03-06T12:41:37.759Z,29.4
2023-03-06T12:51:45.545Z,31.4
2023-03-06T13:01:53.063Z,23.6
2023-03-06T13:11:57.713Z,30.1
2023-03-06T13:22:10.001Z,36.2
2023-03-06T13:32:22.064Z,31.8
2023-03-06T13:42:29.310Z,27.9
2023-03-06T13:52:33.990Z,25.9
2023-03-06T14:02:38.535Z,26.2
2023-03-06T14:12:42.444Z,26.8
2023-03-06T14:22:46.011Z,26.4
2023-03-06T14:32:49.025Z,23.6
2023-03-06T14:42:51.543Z,25.9
2023-03-06T14:52:51.578Z,23.1
2023-03-06T15:05:07.850Z,24.2
2023-03-06T15:15:08.333Z,24.3
2023-03-06T15:25:10.172Z,24.4
2023-03-06T15:35:10.855Z,24.3
2023-03-06T15:45:12.361Z,23.9
2023-03-06T15:55:15.272Z,23.9
2023-03-06T16:05:17.024Z,27
2023-03-06T16:15:18.666Z,23.7
2023-03-06T16:25:20.629Z,26.1
2023-03-06T16:35:23.911Z,23.6
2023-03-06T16:45:27.066Z,22.9
2023-03-06T16:55:28.617Z,23.7
2023-03-06T17:05:30.152Z,23.4
2023-03-06T17:15:31.478Z,26.3
2023-03-06T17:25:31.251Z,23.8
2023-03-06T17:35:34.931Z,24.7
2023-03-06T17:45:37.027Z,26.3
2023-03-06T17:55:37.675Z,26.4
2023-03-06T18:05:38.050Z,23.8
2023-03-06T18:15:40.384Z,25.1
2023-03-06T18:25:43.906Z,24.7
2023-03-06T18:35:47.461Z,25
2023-03-06T18:45:50.757Z,24.8
2023-03-06T18:55:54.099Z,25.1
2023-03-06T19:05:57.564Z,25.1
2023-03-06T19:16:00.988Z,24.8
2023-03-06T19:26:04.297Z,25
2023-03-06T19:36:07.658Z,24.7
2023-03-06T19:46:11.146Z,24.8
2023-03-06T19:56:14.554Z,24.6
2023-03-06T20:06:17.954Z,24.4
2023-03-06T20:16:21.470Z,24.7
2023-03-06T20:26:25.059Z,24.8
2023-03-06T20:36:28.677Z,24.8
2023-03-06T20:46:32.392Z,24.8
2023-03-06T20:56:35.857Z,24.6
2023-03-06T21:05:10.850Z,24.8
2023-03-06T21:15:14.136Z,25.1
2023-03-06T21:25:17.480Z,24.8
2023-03-06T21:35:20.947Z,24.8
2023-03-06T21:45:25.935Z,24.7
2023-03-06T21:55:27.566Z,24.9
2023-03-06T22:05:31.836Z,24.7
2023-03-06T22:15:36.621Z,24.8
2023-03-06T22:25:41.272Z,24.7
2023-03-06T22:35:46.051Z,24.8
2023-03-06T22:45:50.603Z,24.5
2023-03-06T22:55:55.521Z,24.7
2023-03-06T23:05:57.685Z,23.4
2023-03-06T23:15:58.503Z,23.5
2023-03-06T23:25:58.826Z,23
2023-03-06T23:35:59.632Z,23.4
2023-03-06T23:45:59.980Z,23.4
2023-03-06T23:55:59.942Z,23.5
